Time;durP1;ratioP1;P1;durP2;ratioP2;P2;SDS_P1;SDS_P2;PMS_P1;PMS_P2;Temp;Humidity;BMP_temperature;BMP_pressure;BME280_temperature;BME280_humidity;BME280_pressure;Samples;Min_cycle;Max_cycle;Signal;HPM_P1;HPM_P2
2022/12/23 00:00:59;;;;;;;10.00;1.80;;;;;;;9.62;100.00;99248.59;20734140;28;20084;-71
2022/12/23 00:11:01;;;;;;;7.25;1.88;;;;;;;9.68;100.00;99232.75;20845954;28;20063;-72
2022/12/23 00:21:02;;;;;;;7.55;2.58;;;;;;;9.64;100.00;99231.13;20841335;28;20123;-72
2022/12/23 00:31:09;;;;;;;11.45;2.10;;;;;;;9.69;100.00;99232.69;20832751;28;20176;-71
2022/12/23 00:51:30;;;;;;;7.45;1.70;;;;;;;9.86;100.00;99247.84;20738383;28;20184;-74
2022/12/23 01:11:52;;;;;;;4.60;1.10;;;;;;;10.12;100.00;99267.97;20856016;28;20065;-74
2022/12/23 01:21:53;;;;;;;4.30;1.13;;;;;;;10.17;100.00;99273.91;20858195;28;20053;-75
2022/12/23 01:31:54;;;;;;;4.53;0.98;;;;;;;10.22;100.00;99294.69;20837233;28;20042;-75
2022/12/23 01:52:16;;;;;;;5.43;1.05;;;;;;;10.39;100.00;99326.41;20733009;28;20534;-74
2022/12/23 02:12:37;;;;;;;3.38;0.90;;;;;;;10.45;100.00;99357.63;20851786;28;20064;-73
2022/12/23 02:22:38;;;;;;;6.22;1.27;;;;;;;10.52;100.00;99395.78;20861676;28;20152;-73
2022/12/23 02:32:40;;;;;;;5.00;1.42;;;;;;;10.45;100.00;99420.44;20820673;28;20111;-74
2022/12/23 02:42:41;;;;;;;3.05;0.90;;;;;;;10.38;100.00;99426.75;20730863;28;20432;-74
2022/12/23 02:52:42;;;;;;;2.65;0.90;;;;;;;10.27;100.00;99436.69;20729860;28;20207;-75
2022/12/23 03:02:44;;;;;;;3.17;0.75;;;;;;;10.20;100.00;99450.81;20755603;28;20460;-74
2022/12/23 03:12:45;;;;;;;1.58;0.70;;;;;;;10.26;100.00;99462.00;20850215;28;20060;-75
2022/12/23 03:22:47;;;;;;;1.38;0.70;;;;;;;10.38;100.00;99481.69;20842938;28;20064;-75
2022/12/23 03:32:48;;;;;;;2.35;0.90;;;;;;;10.45;100.00;99475.38;20819679;28;20498;-74
2022/12/23 03:42:49;;;;;;;2.58;1.20;;;;;;;10.60;100.00;99500.25;20730410;28;20396;-74
2022/12/23 03:52:50;;;;;;;3.17;1.33;;;;;;;10.57;100.00;99507.31;20727850;28;20116;-74
2022/12/23 04:02:52;;;;;;;2.15;1.17;;;;;;;10.58;100.00;99525.59;20760368;28;20104;-73
2022/12/23 04:12:53;;;;;;;2.28;1.10;;;;;;;10.52;100.00;99524.00;20862975;28;20050;-74
2022/12/23 04:22:54;;;;;;;3.78;1.58;;;;;;;10.51;100.00;99539.78;20869265;28;20050;-71
2022/12/23 04:32:56;;;;;;;3.63;1.60;;;;;;;10.50;100.00;99557.25;20829491;28;20057;-71
2022/12/23 04:42:57;;;;;;;5.57;2.65;;;;;;;10.53;100.00;99570.22;20736655;28;20062;-76
2022/12/23 04:52:58;;;;;;;5.50;2.50;;;;;;;10.51;100.00;99564.19;20730452;28;20058;-75
2022/12/23 05:02:59;;;;;;;5.72;2.40;;;;;;;10.51;100.00;99572.03;20773685;28;20049;-75
2022/12/23 05:13:01;;;;;;;2.97;1.50;;;;;;;10.46;100.00;99546.91;20863340;28;20136;-74
2022/12/23 05:23:02;;;;;;;3.28;1.10;;;;;;;10.45;100.00;99553.91;20855326;28;20056;-74
2022/12/23 05:33:04;;;;;;;3.28;1.60;;;;;;;10.47;100.00;99554.69;20823355;28;20046;-74
2022/12/23 05:43:05;;;;;;;3.33;1.10;;;;;;;10.47;100.00;99554.69;20736934;28;20148;-75
2022/12/23 05:53:06;;;;;;;3.10;1.60;;;;;;;10.48;100.00;99561.66;20733298;28;20763;-74
2022/12/23 06:03:07;;;;;;;4.57;2.28;;;;;;;10.52;100.00;99551.97;20779965;28;20076;-77
2022/12/23 06:13:09;;;;;;;4.90;2.35;;;;;;;10.53;100.00;99554.50;20853547;28;20081;-74
2022/12/23 06:23:10;;;;;;;5.07;2.10;;;;;;;10.52;100.00;99560.66;20862721;28;20056;-73
2022/12/23 06:33:11;;;;;;;9.05;4.93;;;;;;;10.50;100.00;99567.72;20818776;28;20645;-74
2022/12/23 06:43:13;;;;;;;7.40;3.28;;;;;;;10.49;100.00;99583.44;20733893;28;20055;-73
2022/12/23 06:53:14;;;;;;;7.30;2.08;;;;;;;10.51;100.00;99592.97;20736661;28;20050;-74
2022/12/23 07:03:16;;;;;;;4.85;1.90;;;;;;;10.53;100.00;99596.41;20769110;28;20057;-75
2022/12/23 07:13:17;;;;;;;4.10;2.30;;;;;;;10.49;100.00;99584.31;20857716;28;20118;-77
2022/12/23 07:23:18;;;;;;;5.00;2.47;;;;;;;10.52;100.00;99602.53;20845526;28;20107;-78
2022/12/23 07:33:20;;;;;;;4.07;2.22;;;;;;;10.58;100.00;99598.03;20813669;28;20066;-77
2022/12/23 07:43:21;;;;;;;4.43;2.63;;;;;;;10.61;100.00;99598.81;20748437;28;20096;-76
2022/12/23 07:53:22;;;;;;;6.32;2.65;;;;;;;10.70;100.00;99602.94;20758176;28;20050;-77
2022/12/23 08:03:23;;;;;;;7.65;2.55;;;;;;;10.82;100.00;99607.78;20794761;28;20395;-77
2022/12/23 08:13:26;;;;;;;7.65;4.35;;;;;;;10.79;100.00;99607.91;20859488;28;20061;-77
2022/12/23 08:23:27;;;;;;;7.65;2.80;;;;;;;10.92;100.00;99596.16;20857628;28;20081;-77
2022/12/23 08:33:29;;;;;;;7.15;2.65;;;;;;;10.91;100.00;99599.66;20854716;28;20460;-77
2022/12/23 08:43:30;;;;;;;6.65;3.20;;;;;;;11.00;100.00;99602.00;20859263;28;20394;-77
2022/12/23 08:53:36;;;;;;;5.93;2.80;;;;;;;10.98;100.00;99619.53;20856650;28;20061;-77
2022/12/23 09:03:37;;;;;;;3.95;1.67;;;;;;;11.05;100.00;99599.25;20847344;28;20111;-77
2022/12/23 09:13:39;;;;;;;4.75;2.17;;;;;;;11.08;100.00;99582.59;20861066;28;20060;-77
2022/12/23 09:23:40;;;;;;;4.25;1.92;;;;;;;11.26;100.00;99579.41;20847164;28;20726;-78
2022/12/23 09:33:42;;;;;;;4.55;1.20;;;;;;;11.33;100.00;99575.66;20810555;28;20112;-77
2022/12/23 09:43:43;;;;;;;2.65;1.10;;;;;;;11.35;100.00;99565.97;20742822;28;20104;-77
2022/12/23 09:53:44;;;;;;;4.05;1.60;;;;;;;11.38;100.00;99565.91;20742529;28;20058;-77
2022/12/23 10:03:45;;;;;;;3.33;1.20;;;;;;;11.41;100.00;99557.94;20790118;28;20389;-79
2022/12/23 10:13:47;;;;;;;2.92;1.52;;;;;;;11.42;100.00;99538.69;20852536;28;20421;-77
2022/12/23 10:23:49;;;;;;;4.13;1.70;;;;;;;11.49;100.00;99526.22;20868044;28;20068;-78
2022/12/23 10:33:50;;;;;;;2.90;1.52;;;;;;;11.61;100.00;99517.09;20816238;28;20053;-77
2022/12/23 10:43:52;;;;;;;5.35;2.70;;;;;;;11.72;100.00;99501.84;20735903;28;20111;-77
2022/12/23 10:53:53;;;;;;;5.63;2.83;;;;;;;11.85;100.00;99490.06;20725552;28;20049;-79
2022/12/23 11:03:55;;;;;;;10.52;5.28;;;;;;;12.01;100.00;99485.09;20780178;28;20115;-78
2022/12/23 11:13:56;;;;;;;6.55;2.17;;;;;;;12.00;100.00;99471.13;20870759;28;20382;-77
2022/12/23 11:23:59;;;;;;;6.65;1.80;;;;;;;12.01;100.00;99446.59;20859686;28;20168;-79
2022/12/23 11:34:01;;;;;;;4.97;1.90;;;;;;;11.97;100.00;99429.25;20811191;28;20054;-77
2022/12/23 11:44:02;;;;;;;4.40;1.80;;;;;;;11.99;100.00;99401.22;20740426;28;20057;-77
2022/12/23 11:54:03;;;;;;;3.70;1.10;;;;;;;12.08;100.00;99394.78;20732465;28;20058;-77
2022/12/23 12:04:05;;;;;;;4.00;1.15;;;;;;;12.07;100.00;99372.94;20782708;28;20057;-78
2022/12/23 12:14:06;;;;;;;8.98;2.95;;;;;;;12.06;100.00;99355.44;20848101;28;20045;-77
2022/12/23 12:24:07;;;;;;;4.18;1.20;;;;;;;12.05;100.00;99329.28;20848942;28;20057;-77
2022/12/23 12:34:19;;;;;;;3.60;1.40;;;;;;;12.17;100.00;99309.56;20811905;28;20244;-77
2022/12/23 12:44:20;;;;;;;4.05;1.98;;;;;;;12.13;100.00;99292.25;20743549;28;20667;-77
2022/12/23 12:54:21;;;;;;;3.95;1.30;;;;;;;12.20;100.00;99298.97;20767597;28;20104;-78
2022/12/23 13:04:23;;;;;;;5.10;2.35;;;;;;;12.19;100.00;99292.00;20791021;28;20052;-77
2022/12/23 13:14:25;;;;;;;4.20;2.45;;;;;;;12.25;100.00;99271.63;20876177;28;20065;-79
2022/12/23 13:24:26;;;;;;;7.20;2.88;;;;;;;12.31;100.00;99239.00;20880771;28;20080;-79
2022/12/23 13:34:27;;;;;;;5.60;3.17;;;;;;;12.32;100.00;99231.09;20960543;23;20049;-80
2022/12/23 13:44:28;;;;;;;8.35;3.58;;;;;;;12.37;100.00;99230.06;20943498;28;20045;-80
2022/12/23 13:54:30;;;;;;;6.40;2.33;;;;;;;12.38;100.00;99223.88;20926872;28;20420;-80
2022/12/23 14:04:31;;;;;;;3.83;1.65;;;;;;;12.52;100.00;99209.25;20934932;28;20045;-80
2022/12/23 14:14:32;;;;;;;3.28;1.40;;;;;;;12.54;100.00;99203.91;20909475;28;20056;-80
2022/12/23 14:24:36;;;;;;;4.75;2.25;;;;;;;12.52;100.00;99211.88;20917614;28;20529;-79
2022/12/23 14:34:37;;;;;;;3.50;1.80;;;;;;;12.49;100.00;99212.00;20924386;28;20056;-80
2022/12/23 14:44:38;;;;;;;4.70;2.15;;;;;;;12.46;100.00;99211.28;20957553;28;20147;-80
2022/12/23 14:54:40;;;;;;;5.38;2.05;;;;;;;12.59;100.00;99222.97;20946989;28;20049;-80
2022/12/23 15:05:01;;;;;;;4.30;1.75;;;;;;;12.63;100.00;99213.19;20947473;28;20208;-80
2022/12/23 15:15:02;;;;;;;2.28;1.30;;;;;;;12.69;100.00;99223.41;20944911;28;20099;-81
2022/12/23 15:25:03;;;;;;;5.00;2.25;;;;;;;12.58;100.00;99224.72;20955380;28;20056;-80
2022/12/23 15:35:05;;;;;;;7.68;3.40;;;;;;;12.53;100.00;99229.31;20975367;28;20070;-80
2022/12/23 15:45:06;;;;;;;4.25;2.13;;;;;;;12.47;100.00;99240.09;21040495;28;20101;-80
2022/12/23 15:55:07;;;;;;;4.93;2.42;;;;;;;12.49;100.00;99238.25;21063800;28;20097;-81
2022/12/23 16:05:08;;;;;;;6.97;3.90;;;;;;;12.52;100.00;99253.88;21035367;28;20049;-80
2022/12/23 16:15:10;;;;;;;4.70;2.55;;;;;;;12.67;100.00;99264.66;21054230;28;20081;-80
2022/12/23 16:25:11;;;;;;;4.95;1.98;;;;;;;12.73;100.00;99272.25;21079116;28;20044;-80
2022/12/23 16:35:12;;;;;;;3.58;1.00;;;;;;;12.68;100.00;99266.34;21030117;28;20398;-81
2022/12/23 16:45:13;;;;;;;2.42;0.65;;;;;;;12.81;100.00;99281.53;20958405;28;20079;-80
2022/12/23 16:55:15;;;;;;;3.47;1.38;;;;;;;12.84;100.00;99270.06;20961316;28;20480;-81
2022/12/23 17:05:16;;;;;;;4.90;1.48;;;;;;;12.86;100.00;99289.22;20961847;28;20110;-81
2022/12/23 17:15:17;;;;;;;5.15;2.47;;;;;;;12.88;100.00;99307.53;20953392;28;20052;-81
2022/12/23 17:25:20;;;;;;;2.25;1.00;;;;;;;12.89;100.00;99330.25;20984386;28;20049;-80
2022/12/23 17:35:26;;;;;;;2.45;0.93;;;;;;;12.74;100.00;99326.50;20998778;28;20072;-81
2022/12/23 17:45:29;;;;;;;2.75;0.80;;;;;;;12.84;100.00;99346.25;21027892;28;20763;-81
2022/12/23 17:55:30;;;;;;;3.38;1.17;;;;;;;12.68;100.00;99358.28;21016318;28;20135;-82
2022/12/23 18:05:32;;;;;;;2.88;1.00;;;;;;;12.56;100.00;99380.66;20999231;28;20048;-81
2022/12/23 18:15:33;;;;;;;4.32;1.17;;;;;;;12.54;100.00;99388.56;21009511;28;20052;-81
2022/12/23 18:25:34;;;;;;;3.80;1.52;;;;;;;12.54;100.00;99388.56;21008746;28;20554;-82
2022/12/23 18:35:37;;;;;;;7.35;3.67;;;;;;;12.48;100.00;99391.44;21032190;28;20052;-81
2022/12/23 18:45:38;;;;;;;4.43;2.10;;;;;;;12.57;100.00;99398.97;21074647;28;20143;-83
2022/12/23 18:55:40;;;;;;;2.15;1.00;;;;;;;12.62;100.00;99437.31;21089769;28;20453;-81
2022/12/23 19:05:41;;;;;;;3.10;1.17;;;;;;;12.32;100.00;99440.22;21068413;28;20795;-80
2022/12/23 19:15:42;;;;;;;3.08;0.70;;;;;;;12.21;100.00;99451.09;21058665;28;20056;-81
2022/12/23 19:25:44;;;;;;;5.40;3.17;;;;;;;12.16;100.00;99473.19;21068131;28;20416;-82
2022/12/23 19:35:54;;;;;;;3.47;1.30;;;;;;;12.33;100.00;99479.53;21002918;28;20053;-81
2022/12/23 19:45:56;;;;;;;5.38;1.63;;;;;;;12.45;100.00;99493.94;20975438;28;20115;-81
2022/12/23 19:55:57;;;;;;;10.57;1.60;;;;;;;12.20;100.00;99496.63;20972126;28;20143;-81
2022/12/23 20:05:59;;;;;;;7.22;1.90;;;;;;;12.30;100.00;99499.78;21009899;28;20120;-81
2022/12/23 20:16:00;;;;;;;5.82;1.60;;;;;;;12.40;100.00;99535.28;21028104;28;20045;-81
2022/12/23 20:26:02;;;;;;;6.78;1.20;;;;;;;12.48;100.00;99556.00;21033508;28;20093;-82
2022/12/23 20:36:03;;;;;;;5.80;1.50;;;;;;;12.46;100.00;99563.94;20997032;28;20041;-81
2022/12/23 20:46:04;;;;;;;5.53;1.30;;;;;;;12.31;100.00;99569.72;20991215;28;20460;-81
2022/12/23 20:56:06;;;;;;;5.25;1.50;;;;;;;12.25;100.00;99583.94;20992847;28;20147;-81
2022/12/23 21:06:07;;;;;;;3.80;1.50;;;;;;;12.27;100.00;99586.53;20979751;28;20094;-81
2022/12/23 21:16:08;;;;;;;8.55;1.60;;;;;;;11.82;100.00;99655.38;20978399;28;20452;-80
2022/12/23 21:26:10;;;;;;;7.28;1.60;;;;;;;11.23;100.00;99652.88;20956132;28;20428;-80
2022/12/23 21:36:11;;;;;;;5.18;1.10;;;;;;;11.08;100.00;99682.16;20990313;28;20052;-80
2022/12/23 21:46:20;;;;;;;6.57;1.40;;;;;;;10.98;100.00;99679.78;21000699;28;20048;-81
2022/12/23 21:56:23;;;;;;;8.13;1.50;;;;;;;10.97;100.00;99674.56;20949354;28;20140;-79
2022/12/23 22:06:24;;;;;;;6.40;1.40;;;;;;;10.89;100.00;99710.63;20955889;28;20458;-81
2022/12/23 22:16:25;;;;;;;3.95;0.90;;;;;;;10.97;100.00;99712.13;20971532;28;20111;-81
2022/12/23 22:26:27;;;;;;;8.63;2.78;;;;;;;10.95;100.00;99726.16;20962909;28;20044;-80
2022/12/23 22:36:28;;;;;;;12.23;4.68;;;;;;;11.05;100.00;99720.59;20953317;28;20053;-79
2022/12/23 22:46:29;;;;;;;16.65;2.28;;;;;;;11.26;100.00;99719.16;20936289;28;20044;-80
2022/12/23 22:56:31;;;;;;;10.93;2.53;;;;;;;11.47;100.00;99738.59;20963640;28;20053;-79
2022/12/23 23:06:32;;;;;;;13.45;3.17;;;;;;;11.39;100.00;99751.06;20934161;28;20723;-79
2022/12/23 23:16:34;;;;;;;11.57;3.05;;;;;;;11.26;100.00;99778.56;20969561;28;20060;-79
2022/12/23 23:26:35;;;;;;;6.20;1.80;;;;;;;11.13;100.00;99804.25;20958058;28;20087;-81
2022/12/23 23:36:36;;;;;;;6.78;1.45;;;;;;;10.99;100.00;99817.72;20982104;28;20083;-81
2022/12/23 23:46:37;;;;;;;10.80;1.95;;;;;;;10.90;100.00;99825.81;20955685;28;20056;-81
2022/12/23 23:56:40;;;;;;;10.02;1.70;;;;;;;10.87;100.00;99815.41;20963170;28;20053;-81
